Time;durP1;ratioP1;P1;durP2;ratioP2;P2;SDS_P1;SDS_P2;PMS_P1;PMS_P2;Temp;Humidity;BMP_temperature;BMP_pressure;BME280_temperature;BME280_humidity;BME280_pressure;Samples;Min_cycle;Max_cycle;Signal;HPM_P1;HPM_P2
2024/02/18 00:02:37;;;;;;;9.63;8.17;;;;;;;11.84;58.45;100457.63;6969462;28;20198;-77
2024/02/18 00:06:00;;;;;;;14.83;7.87;;;;;;;11.77;58.42;100459.31;6968380;28;20274;-79
2024/02/18 00:09:21;;;;;;;12.77;7.60;;;;;;;11.20;58.70;100455.81;6943916;28;20314;-80
2024/02/18 00:12:43;;;;;;;11.70;8.33;;;;;;;11.08;59.58;100467.13;6971262;28;20309;-79
2024/02/18 00:16:05;;;;;;;10.87;8.40;;;;;;;10.75;60.65;100460.00;6966835;28;20210;-79
2024/02/18 00:19:27;;;;;;;13.77;9.03;;;;;;;11.02;60.06;100448.91;6971819;28;20223;-79
2024/02/18 00:22:49;;;;;;;11.67;9.23;;;;;;;11.21;59.85;100456.69;6951354;28;20285;-80
2024/02/18 00:26:12;;;;;;;8.47;7.60;;;;;;;11.45;59.17;100462.88;6972553;28;20701;-80
2024/02/18 00:29:34;;;;;;;9.63;8.23;;;;;;;10.80;60.20;100457.66;6952270;28;20400;-79
2024/02/18 00:32:55;;;;;;;11.53;8.37;;;;;;;11.14;59.75;100452.94;6973080;28;20230;-79
2024/02/18 00:36:17;;;;;;;11.67;8.70;;;;;;;10.99;60.21;100458.16;6973273;28;20255;-80
2024/02/18 00:39:39;;;;;;;13.47;8.53;;;;;;;11.10;60.14;100452.44;6971381;28;20305;-79
2024/02/18 00:43:01;;;;;;;9.70;8.70;;;;;;;11.29;59.38;100451.28;6971335;28;20314;-80
2024/02/18 00:46:22;;;;;;;13.30;8.47;;;;;;;11.36;58.78;100434.22;6973280;28;20279;-79
2024/02/18 00:49:44;;;;;;;9.10;8.20;;;;;;;10.90;59.83;100444.84;6971476;28;20293;-80
2024/02/18 00:53:05;;;;;;;12.03;8.60;;;;;;;10.93;60.44;100449.91;6969770;28;20271;-80
2024/02/18 00:56:28;;;;;;;11.80;9.27;;;;;;;11.10;59.67;100447.03;6949036;28;20233;-80
2024/02/18 00:59:50;;;;;;;12.83;9.87;;;;;;;11.10;60.67;100447.03;6966337;28;20356;-79
2024/02/18 01:03:12;;;;;;;12.07;8.93;;;;;;;11.21;60.50;100435.91;6951765;28;20361;-79
2024/02/18 01:06:34;;;;;;;10.53;9.47;;;;;;;10.98;60.42;100445.69;6953318;28;20203;-80
2024/02/18 01:09:55;;;;;;;11.27;9.23;;;;;;;11.43;59.89;100443.31;6950311;28;20290;-80
2024/02/18 01:13:18;;;;;;;14.27;9.73;;;;;;;11.09;60.42;100439.13;6950603;28;20218;-80
2024/02/18 01:16:40;;;;;;;14.13;10.00;;;;;;;11.13;61.08;100448.56;6971446;28;20283;-80
2024/02/18 01:20:02;;;;;;;11.73;9.07;;;;;;;11.62;60.31;100437.56;6957148;28;20302;-78
2024/02/18 01:23:24;;;;;;;13.80;9.10;;;;;;;11.73;59.22;100441.75;6965975;28;20206;-79
2024/02/18 01:26:45;;;;;;;10.27;8.70;;;;;;;11.62;59.45;100440.28;6951388;28;23695;-78
2024/02/18 01:30:09;;;;;;;11.23;9.13;;;;;;;11.81;59.03;100437.19;6967720;28;20345;-78
2024/02/18 01:33:30;;;;;;;9.80;8.73;;;;;;;11.89;59.28;100428.22;6975283;28;20761;-80
2024/02/18 01:36:52;;;;;;;11.97;8.97;;;;;;;11.74;59.26;100429.97;6982708;28;20257;-79
2024/02/18 01:40:14;;;;;;;12.27;9.27;;;;;;;11.26;59.97;100408.38;6947048;28;20294;-79
2024/02/18 01:43:35;;;;;;;13.07;9.33;;;;;;;11.74;59.62;100427.25;6960170;28;20285;-79
2024/02/18 01:46:58;;;;;;;13.30;8.93;;;;;;;11.49;59.92;100407.53;6969467;28;20362;-79
2024/02/18 01:50:20;;;;;;;14.83;8.97;;;;;;;11.73;60.34;100420.16;6958734;28;20210;-80
2024/02/18 01:53:42;;;;;;;12.47;8.80;;;;;;;12.01;58.55;100407.88;6960835;28;20222;-79
2024/02/18 01:57:06;;;;;;;11.47;9.17;;;;;;;11.53;59.29;100421.53;6969335;28;20230;-79
2024/02/18 02:00:28;;;;;;;13.23;8.80;;;;;;;11.49;59.91;100415.63;6952175;28;20233;-80
2024/02/18 02:03:51;;;;;;;10.93;8.90;;;;;;;11.86;59.05;100409.66;6972022;28;20244;-78
2024/02/18 02:07:14;;;;;;;9.67;8.30;;;;;;;12.01;58.79;100413.28;6971009;28;20312;-80
2024/02/18 02:10:36;;;;;;;15.73;8.37;;;;;;;11.80;59.51;100408.47;6966800;28;20206;-78
2024/02/18 02:13:58;;;;;;;11.03;9.10;;;;;;;11.73;59.68;100418.31;6970184;28;20222;-79
2024/02/18 02:17:19;;;;;;;12.93;7.93;;;;;;;11.84;59.95;100419.78;6959469;28;20601;-78
2024/02/18 02:20:42;;;;;;;10.77;8.03;;;;;;;11.54;60.24;100412.41;6965330;28;20213;-76
2024/02/18 02:24:04;;;;;;;17.50;8.90;;;;;;;11.40;60.70;100402.31;6967118;28;20344;-78
2024/02/18 02:27:30;;;;;;;9.60;8.37;;;;;;;11.20;61.15;100380.22;6964359;28;20223;-75
2024/02/18 02:30:53;;;;;;;11.43;9.40;;;;;;;11.47;60.94;100398.75;6970011;28;20631;-76
2024/02/18 02:34:15;;;;;;;13.63;9.00;;;;;;;11.36;61.26;100396.41;6953305;28;20238;-77
2024/02/18 02:37:37;;;;;;;14.40;10.07;;;;;;;11.25;61.54;100391.38;6949677;28;20222;-76
2024/02/18 02:40:58;;;;;;;14.30;10.13;;;;;;;11.67;61.41;100383.88;6972181;28;20348;-79
2024/02/18 02:44:20;;;;;;;12.83;10.20;;;;;;;11.86;60.64;100383.44;6972281;28;20242;-76
2024/02/18 02:47:43;;;;;;;16.77;11.07;;;;;;;11.84;60.52;100380.09;6966129;28;20219;-76
2024/02/18 02:51:05;;;;;;;12.13;9.90;;;;;;;11.93;60.29;100386.31;6952336;28;20720;-77
2024/02/18 02:54:26;;;;;;;12.70;11.10;;;;;;;12.09;59.75;100386.25;6972033;28;20243;-79
2024/02/18 02:57:48;;;;;;;11.83;9.63;;;;;;;11.95;59.72;100381.56;6970999;28;20360;-76
2024/02/18 03:01:10;;;;;;;14.67;9.97;;;;;;;11.69;60.12;100378.28;6954691;28;20202;-76
2024/02/18 03:04:33;;;;;;;12.83;11.10;;;;;;;11.93;59.76;100383.59;6963953;28;20194;-76
2024/02/18 03:07:54;;;;;;;12.20;10.27;;;;;;;11.96;59.51;100380.53;6969780;28;20256;-80
2024/02/18 03:11:16;;;;;;;12.80;11.30;;;;;;;11.67;59.26;100343.34;6957676;28;20304;-81
2024/02/18 03:14:37;;;;;;;13.70;10.50;;;;;;;12.02;58.52;100383.38;6962204;28;20623;-79
2024/02/18 03:17:59;;;;;;;15.13;10.63;;;;;;;11.78;59.56;100372.69;6958668;28;20233;-78
2024/02/18 03:21:25;;;;;;;15.47;9.90;;;;;;;11.48;59.81;100384.22;6973707;28;20198;-80
2024/02/18 03:24:46;;;;;;;10.73;9.23;;;;;;;11.46;59.87;100380.03;6960552;28;20679;-79
2024/02/18 03:28:08;;;;;;;12.23;10.10;;;;;;;11.29;60.00;100384.63;6948323;28;20314;-79
2024/02/18 03:31:30;;;;;;;13.13;10.90;;;;;;;11.43;60.54;100372.25;6961819;28;20225;-78
2024/02/18 03:34:51;;;;;;;14.67;10.33;;;;;;;11.52;59.94;100374.75;6975027;28;20222;-80
2024/02/18 03:38:14;;;;;;;17.47;11.50;;;;;;;11.45;59.69;100371.06;6945560;28;20357;-76
2024/02/18 03:41:36;;;;;;;15.17;11.87;;;;;;;10.74;60.50;100362.03;6957091;28;20212;-78
2024/02/18 03:44:57;;;;;;;16.47;12.40;;;;;;;11.24;60.81;100368.09;6971002;28;20236;-77
2024/02/18 03:48:19;;;;;;;16.50;12.00;;;;;;;11.15;60.49;100369.09;6970048;28;20320;-77
2024/02/18 03:51:40;;;;;;;17.23;12.47;;;;;;;11.26;60.11;100367.88;6963234;28;20293;-78
2024/02/18 03:55:03;;;;;;;20.10;12.27;;;;;;;11.33;60.47;100368.91;6970662;28;20367;-77
2024/02/18 03:58:25;;;;;;;16.73;11.53;;;;;;;10.98;60.77;100369.28;6969587;28;20321;-77
2024/02/18 04:01:46;;;;;;;17.90;12.80;;;;;;;11.22;60.86;100366.56;6947694;28;20206;-77
2024/02/18 04:05:11;;;;;;;15.43;11.80;;;;;;;11.21;60.25;100360.31;6951674;28;20417;-77
2024/02/18 04:08:32;;;;;;;15.33;11.37;;;;;;;11.36;59.70;100358.59;6957619;28;20598;-78
2024/02/18 04:11:55;;;;;;;16.97;11.10;;;;;;;11.36;58.65;100360.44;6950222;28;20714;-77
2024/02/18 04:15:17;;;;;;;13.07;9.83;;;;;;;11.07;58.36;100352.06;6970159;28;20229;-79
2024/02/18 04:18:38;;;;;;;17.70;12.00;;;;;;;10.53;59.66;100361.69;6970851;28;20219;-80
2024/02/18 04:22:00;;;;;;;16.93;11.40;;;;;;;10.58;60.09;100353.09;6962496;28;20344;-79
2024/02/18 04:25:22;;;;;;;14.43;11.07;;;;;;;10.81;60.24;100351.41;6973471;28;20289;-79
2024/02/18 04:28:45;;;;;;;14.30;10.70;;;;;;;10.76;59.78;100357.34;6972548;28;20230;-79
2024/02/18 04:32:08;;;;;;;14.13;10.60;;;;;;;10.86;60.07;100357.97;6975887;28;20214;-79
2024/02/18 04:35:29;;;;;;;15.70;11.60;;;;;;;10.46;59.57;100349.88;6963958;28;20650;-80
2024/02/18 04:38:50;;;;;;;16.00;11.27;;;;;;;10.64;60.34;100342.47;6973794;28;20258;-80
2024/02/18 04:42:12;;;;;;;12.80;10.70;;;;;;;10.55;60.32;100354.28;6970361;28;20603;-79
2024/02/18 04:45:35;;;;;;;16.43;11.40;;;;;;;10.29;60.81;100358.13;6946581;28;20352;-80
2024/02/18 04:48:57;;;;;;;16.33;13.13;;;;;;;10.12;61.95;100349.16;6958426;28;20287;-80
2024/02/18 04:52:18;;;;;;;16.63;11.83;;;;;;;10.01;62.36;100353.97;6973281;28;20209;-79
2024/02/18 04:55:40;;;;;;;18.43;13.47;;;;;;;10.17;62.02;100341.41;6974648;28;20233;-80
2024/02/18 04:59:01;;;;;;;15.67;12.17;;;;;;;10.31;61.00;100331.81;6970379;28;20357;-81
2024/02/18 05:02:25;;;;;;;20.70;13.87;;;;;;;10.31;61.69;100338.06;6950963;28;20328;-81
2024/02/18 05:05:47;;;;;;;18.30;13.23;;;;;;;10.41;60.97;100349.56;6972264;28;20210;-79
2024/02/18 05:09:08;;;;;;;17.40;13.20;;;;;;;10.50;60.45;100342.31;6952593;28;20317;-79
2024/02/18 05:12:30;;;;;;;14.57;12.00;;;;;;;10.66;59.56;100331.50;6947089;28;20312;-81
2024/02/18 05:15:52;;;;;;;18.03;13.10;;;;;;;10.14;60.53;100340.88;6944093;28;20205;-77
2024/02/18 05:19:15;;;;;;;16.43;12.50;;;;;;;10.34;60.17;100337.72;6946307;28;20229;-77
2024/02/18 05:22:39;;;;;;;17.50;12.67;;;;;;;10.50;59.84;100345.84;6940261;28;20300;-79
2024/02/18 05:26:01;;;;;;;14.27;12.30;;;;;;;10.56;59.13;100328.16;6952762;28;20351;-77
2024/02/18 05:29:23;;;;;;;15.93;12.40;;;;;;;10.52;59.15;100337.59;6967948;28;20291;-78
2024/02/18 05:32:45;;;;;;;15.50;12.23;;;;;;;10.61;59.09;100326.63;6967977;28;20236;-77
2024/02/18 05:36:08;;;;;;;18.40;13.03;;;;;;;10.30;58.99;100340.94;6966212;28;20573;-79
2024/02/18 05:39:30;;;;;;;18.43;13.67;;;;;;;10.31;59.88;100339.91;6962416;28;20223;-77
2024/02/18 05:42:51;;;;;;;16.87;12.77;;;;;;;10.47;59.26;100332.72;6941003;28;20615;-77
2024/02/18 05:46:13;;;;;;;17.87;13.53;;;;;;;10.22;59.01;100325.56;6967690;28;20209;-80
2024/02/18 05:49:34;;;;;;;18.60;12.60;;;;;;;10.05;59.18;100301.47;6967768;28;20321;-77
2024/02/18 05:52:57;;;;;;;18.67;12.83;;;;;;;10.15;58.83;100331.81;6961860;28;20229;-77
2024/02/18 05:56:18;;;;;;;21.73;13.50;;;;;;;9.93;58.77;100317.06;6965587;28;20293;-77
2024/02/18 05:59:40;;;;;;;19.20;12.97;;;;;;;10.04;59.31;100318.66;6953257;28;20276;-79
2024/02/18 06:03:01;;;;;;;17.63;13.00;;;;;;;9.81;59.62;100314.84;6962289;28;20768;-79
2024/02/18 06:06:23;;;;;;;21.27;13.33;;;;;;;9.53;60.04;100319.63;6968207;28;20365;-77
2024/02/18 06:09:46;;;;;;;17.37;13.53;;;;;;;9.43;61.02;100323.44;6972710;28;20317;-77
2024/02/18 06:13:07;;;;;;;17.23;13.83;;;;;;;9.53;61.01;100308.88;6964526;28;20685;-80
2024/02/18 06:16:29;;;;;;;20.17;13.70;;;;;;;9.92;59.61;100317.25;6947976;28;20309;-77
2024/02/18 06:19:50;;;;;;;19.33;13.97;;;;;;;9.59;59.47;100302.81;6962507;28;20619;-77
2024/02/18 06:23:12;;;;;;;19.07;14.03;;;;;;;9.56;60.33;100311.22;6959393;28;20787;-78
2024/02/18 06:26:35;;;;;;;20.97;14.73;;;;;;;9.25;60.93;100318.13;6972247;28;20301;-77
2024/02/18 06:29:58;;;;;;;19.20;13.80;;;;;;;9.33;61.23;100309.28;6972352;28;20245;-77
2024/02/18 06:33:20;;;;;;;21.47;15.03;;;;;;;9.44;60.78;100315.19;6971718;28;20226;-80
2024/02/18 06:36:42;;;;;;;20.40;15.10;;;;;;;9.35;60.49;100312.63;6945564;28;20690;-77
2024/02/18 06:40:04;;;;;;;20.67;14.50;;;;;;;9.22;61.75;100307.69;6972083;28;20660;-77
2024/02/18 06:43:27;;;;;;;18.77;14.70;;;;;;;9.32;61.20;100323.72;6972645;28;20357;-77
2024/02/18 06:46:51;;;;;;;18.07;14.00;;;;;;;9.27;60.89;100310.75;6959918;28;20231;-76
2024/02/18 06:50:13;;;;;;;24.50;14.93;;;;;;;9.33;61.29;100317.34;6943340;28;20207;-80
2024/02/18 06:53:34;;;;;;;21.43;15.03;;;;;;;9.53;61.06;100308.00;6965698;28;20265;-77
2024/02/18 06:56:56;;;;;;;22.43;15.47;;;;;;;9.57;60.73;100295.91;6969730;28;20317;-77
2024/02/18 07:00:19;;;;;;;23.00;15.40;;;;;;;9.57;60.61;100271.69;6963904;28;20264;-78
2024/02/18 07:03:41;;;;;;;27.37;16.60;;;;;;;9.62;60.81;100269.34;6943689;28;20657;-79
2024/02/18 07:07:03;;;;;;;19.80;15.70;;;;;;;9.64;60.36;100297.78;6965270;28;20784;-81
2024/02/18 07:10:24;;;;;;;22.20;14.47;;;;;;;10.32;59.48;100298.47;6976439;28;20738;-80
2024/02/18 07:13:46;;;;;;;24.50;14.20;;;;;;;10.24;59.04;100296.63;6975288;28;20223;-80
2024/02/18 07:17:09;;;;;;;24.43;15.93;;;;;;;9.86;59.58;100313.34;6960899;28;20245;-79
2024/02/18 07:20:30;;;;;;;19.23;15.40;;;;;;;10.28;60.16;100319.53;6972390;28;20202;-81
2024/02/18 07:23:52;;;;;;;19.53;13.97;;;;;;;10.35;60.59;100255.00;6973783;28;20777;-83
2024/02/18 07:27:14;;;;;;;15.37;12.27;;;;;;;10.37;59.24;100293.41;6971479;28;20219;-78
2024/02/18 07:30:35;;;;;;;16.43;11.97;;;;;;;11.12;57.51;100295.72;6956057;28;20748;-80
2024/02/18 07:33:58;;;;;;;18.70;13.93;;;;;;;11.25;57.56;100296.00;6946708;28;20713;-80
2024/02/18 07:37:20;;;;;;;16.13;13.73;;;;;;;11.01;57.89;100280.72;6955738;28;20750;-80
2024/02/18 07:40:41;;;;;;;16.87;13.80;;;;;;;10.53;59.11;100282.63;6963896;28;20195;-78
2024/02/18 07:44:03;;;;;;;16.80;13.07;;;;;;;11.06;59.36;100278.34;6966484;28;20352;-79
2024/02/18 07:47:24;;;;;;;16.30;12.27;;;;;;;11.60;58.14;100274.81;6971831;28;20226;-79
2024/02/18 07:50:47;;;;;;;15.03;11.73;;;;;;;12.46;56.04;100260.03;6965154;28;20341;-78
2024/02/18 07:54:09;;;;;;;15.43;12.17;;;;;;;13.15;54.06;100261.63;6948793;28;20302;-79
2024/02/18 07:57:30;;;;;;;13.53;11.30;;;;;;;13.80;52.49;100257.06;6973113;28;20356;-78
2024/02/18 08:00:52;;;;;;;14.07;10.30;;;;;;;14.66;50.98;100255.06;6944019;28;20916;-76
2024/02/18 08:04:13;;;;;;;12.53;10.77;;;;;;;14.40;50.93;100252.94;6946209;28;20230;-76
2024/02/18 08:07:36;;;;;;;13.67;10.70;;;;;;;15.21;49.46;100257.78;6959591;28;20726;-77
2024/02/18 08:10:58;;;;;;;12.33;10.53;;;;;;;15.65;48.20;100255.53;6969643;28;20810;-76
2024/02/18 08:14:19;;;;;;;13.33;11.53;;;;;;;15.47;48.53;100257.97;6969219;28;20280;-76
2024/02/18 08:17:41;;;;;;;15.33;11.90;;;;;;;15.77;47.97;100249.34;6968868;28;20398;-76
2024/02/18 08:21:03;;;;;;;12.00;10.77;;;;;;;16.86;44.89;100257.91;6969443;28;20579;-79
2024/02/18 08:24:25;;;;;;;17.60;12.00;;;;;;;17.64;43.65;100235.97;6968076;28;20293;-76
2024/02/18 08:27:47;;;;;;;13.97;11.97;;;;;;;17.17;43.91;100249.09;6968390;28;20281;-77
2024/02/18 08:31:08;;;;;;;13.27;11.53;;;;;;;17.67;43.57;100232.81;6969146;28;20885;-76
2024/02/18 08:34:30;;;;;;;13.10;11.63;;;;;;;18.21;42.34;100229.63;6968639;28;20230;-76
2024/02/18 08:37:52;;;;;;;11.47;10.30;;;;;;;19.02;40.91;100217.63;6966155;28;20233;-76
2024/02/18 08:41:14;;;;;;;10.67;9.57;;;;;;;19.56;40.02;100204.00;6941598;28;20306;-78
2024/02/18 08:44:36;;;;;;;11.97;10.37;;;;;;;19.09;41.08;100208.31;6941564;28;20279;-76
2024/02/18 08:47:58;;;;;;;9.90;8.90;;;;;;;21.22;36.44;100189.00;6940649;28;20718;-76
2024/02/18 08:51:19;;;;;;;9.60;8.70;;;;;;;21.14;36.30;100195.69;6940793;28;20300;-77
2024/02/18 08:54:43;;;;;;;9.83;7.97;;;;;;;22.14;35.52;100194.28;6947284;28;20618;-75
2024/02/18 08:58:05;;;;;;;9.60;7.17;;;;;;;22.28;34.98;100190.97;6966712;28;20236;-76
2024/02/18 09:01:27;;;;;;;8.50;7.70;;;;;;;22.64;33.85;100193.28;6968294;28;20301;-76
2024/02/18 09:04:49;;;;;;;8.17;7.40;;;;;;;22.52;34.22;100181.53;6967322;28;20218;-76
2024/02/18 09:08:10;;;;;;;10.30;9.10;;;;;;;22.43;33.95;100183.00;6967406;28;20680;-75
2024/02/18 09:11:32;;;;;;;11.00;8.03;;;;;;;22.21;34.43;100173.81;6968220;28;20297;-79
2024/02/18 09:14:56;;;;;;;8.27;7.43;;;;;;;22.01;34.06;100181.66;6968474;28;20223;-78
2024/02/18 09:18:18;;;;;;;8.77;7.77;;;;;;;21.95;34.77;100163.41;6970171;28;20605;-77
2024/02/18 09:21:39;;;;;;;13.33;10.43;;;;;;;21.48;35.75;100161.88;6970362;28;20213;-77
2024/02/18 09:25:01;;;;;;;9.07;8.17;;;;;;;20.87;36.46;100168.13;6970018;28;20207;-78
2024/02/18 09:28:22;;;;;;;8.60;7.57;;;;;;;19.60;38.56;100156.81;6967217;28;20309;-78
2024/02/18 09:31:47;;;;;;;9.70;7.27;;;;;;;19.61;39.32;100152.16;6967921;28;20751;-78
2024/02/18 09:35:08;;;;;;;8.67;7.77;;;;;;;19.09;39.74;100156.34;6967454;28;20241;-77
2024/02/18 09:38:30;;;;;;;9.90;7.60;;;;;;;18.40;42.45;100163.13;6970665;28;20281;-78
2024/02/18 09:41:52;;;;;;;8.30;7.30;;;;;;;18.62;42.39;100139.78;6972286;28;20206;-78
2024/02/18 09:45:14;;;;;;;10.37;7.43;;;;;;;17.23;45.63;100148.19;6973006;28;20345;-79
2024/02/18 09:48:37;;;;;;;9.00;8.10;;;;;;;16.05;48.12;100153.97;6972370;28;20336;-78
2024/02/18 09:51:59;;;;;;;10.73;7.97;;;;;;;16.93;46.47;100140.75;6973519;28;20292;-76
2024/02/18 09:55:21;;;;;;;9.20;7.80;;;;;;;17.08;45.83;100142.19;6972725;28;20319;-76
2024/02/18 09:58:42;;;;;;;9.63;7.97;;;;;;;16.97;46.31;100133.81;6966073;28;20359;-77
2024/02/18 10:02:05;;;;;;;7.87;7.17;;;;;;;16.46;47.50;100127.44;6949729;28;20335;-78
2024/02/18 10:05:28;;;;;;;8.53;7.63;;;;;;;16.55;46.78;100112.53;6945071;28;20296;-77
2024/02/18 10:08:54;;;;;;;7.43;6.73;;;;;;;16.86;46.30;100121.69;6958591;28;20247;-79
2024/02/18 10:12:16;;;;;;;8.47;7.57;;;;;;;17.05;46.05;100112.63;6980676;28;20221;-79
2024/02/18 10:15:38;;;;;;;8.60;7.20;;;;;;;16.32;47.34;100112.94;6988686;28;20319;-79
2024/02/18 10:18:59;;;;;;;8.07;7.27;;;;;;;17.65;45.08;100112.19;6986291;28;20410;-82
2024/02/18 10:22:24;;;;;;;9.20;8.23;;;;;;;17.21;46.32;100032.28;6980813;28;20323;-80
2024/02/18 10:25:49;;;;;;;8.40;7.60;;;;;;;16.73;46.31;100097.22;6966426;28;20211;-80
2024/02/18 10:29:12;;;;;;;8.37;7.57;;;;;;;17.60;45.72;100094.78;6968827;28;20706;-81
2024/02/18 10:32:34;;;;;;;7.97;6.77;;;;;;;17.36;45.29;100100.97;6975147;28;20300;-79
2024/02/18 10:36:02;;;;;;;7.17;6.37;;;;;;;18.26;44.24;100066.78;6967215;28;20275;-78
2024/02/18 10:39:28;;;;;;;8.10;6.37;;;;;;;18.76;43.48;100089.44;6968165;28;20218;-77
2024/02/18 10:42:52;;;;;;;6.90;6.17;;;;;;;18.93;43.27;100079.59;6970400;28;20304;-78
2024/02/18 10:46:14;;;;;;;10.17;6.40;;;;;;;18.96;41.94;100071.75;6957852;28;20330;-82
2024/02/18 10:49:37;;;;;;;7.57;6.13;;;;;;;19.02;42.38;100061.78;6973113;28;20647;-79
2024/02/18 10:53:02;;;;;;;8.27;6.03;;;;;;;18.47;42.41;100058.22;6983113;28;20681;-80
2024/02/18 10:56:25;;;;;;;8.37;6.73;;;;;;;18.22;43.61;100051.91;6988955;28;20294;-78
2024/02/18 10:59:53;;;;;;;8.37;6.90;;;;;;;17.57;44.91;100049.69;6987388;28;20264;-79
2024/02/18 11:03:20;;;;;;;9.53;6.70;;;;;;;18.08;43.71;100047.63;6980701;28;20277;-78
2024/02/18 11:06:43;;;;;;;9.07;6.43;;;;;;;17.83;43.91;100016.78;6970023;28;20205;-78
2024/02/18 11:10:06;;;;;;;7.57;6.77;;;;;;;17.86;43.56;100027.25;6974256;28;20236;-79
2024/02/18 11:13:30;;;;;;;7.17;6.27;;;;;;;18.01;43.48;100038.66;6970514;28;20288;-78
2024/02/18 11:16:53;;;;;;;6.47;5.87;;;;;;;17.27;43.14;100004.97;6987206;28;20322;-79
2024/02/18 11:20:15;;;;;;;6.03;5.53;;;;;;;17.54;43.44;100020.16;6995089;28;20363;-76
2024/02/18 11:23:36;;;;;;;7.00;5.20;;;;;;;17.29;43.74;100010.22;6956094;28;20644;-77
2024/02/18 11:26:58;;;;;;;7.00;5.30;;;;;;;17.71;42.33;100007.66;6960412;28;20455;-78
2024/02/18 11:30:21;;;;;;;5.30;4.80;;;;;;;17.67;42.48;99978.28;6969593;28;20217;-78
2024/02/18 11:33:43;;;;;;;5.87;5.37;;;;;;;18.00;41.83;99976.13;6962831;28;20261;-77
2024/02/18 11:37:06;;;;;;;7.93;5.70;;;;;;;17.14;42.78;99991.41;6977891;28;20693;-76
2024/02/18 11:40:33;;;;;;;4.90;4.40;;;;;;;17.58;43.04;99987.81;6955354;28;20297;-76
2024/02/18 11:43:55;;;;;;;6.87;4.97;;;;;;;18.07;41.31;99975.00;6970811;28;20214;-79
2024/02/18 11:47:18;;;;;;;5.63;5.10;;;;;;;18.19;41.28;99973.19;6968306;28;20241;-76
2024/02/18 11:50:40;;;;;;;6.17;4.80;;;;;;;18.55;41.30;99969.66;6961450;28;20296;-79
2024/02/18 11:54:01;;;;;;;5.27;4.77;;;;;;;18.77;39.76;99943.56;6952932;28;20360;-79
2024/02/18 11:57:23;;;;;;;6.27;5.03;;;;;;;18.11;40.42;99931.69;6964796;28;20241;-79
2024/02/18 12:00:44;;;;;;;4.93;4.53;;;;;;;18.08;40.32;99915.75;6974260;28;20220;-78
2024/02/18 12:04:07;;;;;;;4.70;4.30;;;;;;;18.35;39.70;99923.47;6981435;28;20330;-79
2024/02/18 12:07:28;;;;;;;5.63;5.03;;;;;;;18.28;40.16;99910.94;6968204;28;20665;-79
2024/02/18 12:10:50;;;;;;;5.50;4.70;;;;;;;18.75;39.46;99905.50;6991324;28;20691;-80
2024/02/18 12:14:11;;;;;;;4.90;4.50;;;;;;;19.11;38.91;99907.34;6971237;28;20317;-77
2024/02/18 12:17:33;;;;;;;5.50;4.20;;;;;;;19.32;38.74;99898.59;6963941;28;20364;-79
2024/02/18 12:20:57;;;;;;;5.00;4.50;;;;;;;19.78;37.86;99879.50;6968110;28;20222;-78
2024/02/18 12:24:18;;;;;;;4.97;4.33;;;;;;;19.60;38.11;99888.66;6966289;28;20707;-78
2024/02/18 12:27:40;;;;;;;5.70;4.30;;;;;;;19.51;37.71;99864.63;6960020;28;20310;-79
2024/02/18 12:31:02;;;;;;;4.33;4.00;;;;;;;19.72;36.59;99873.09;6973486;28;20218;-78
2024/02/18 12:34:24;;;;;;;4.87;3.77;;;;;;;18.80;37.68;99885.72;6988086;28;20230;-79
2024/02/18 12:37:47;;;;;;;4.27;3.87;;;;;;;19.50;35.89;99868.41;6975607;28;20278;-79
2024/02/18 12:41:08;;;;;;;3.70;3.40;;;;;;;19.31;36.22;99870.44;6977329;28;20233;-79
2024/02/18 12:44:30;;;;;;;3.73;3.40;;;;;;;19.26;35.86;99866.72;6971294;28;20735;-77
2024/02/18 12:47:52;;;;;;;3.80;3.50;;;;;;;18.55;38.40;99846.75;6962389;28;20313;-77
2024/02/18 12:51:15;;;;;;;4.13;3.80;;;;;;;19.24;36.81;99850.56;6940329;28;20261;-78
2024/02/18 12:54:38;;;;;;;4.03;3.63;;;;;;;19.68;36.83;99852.75;6940576;28;20314;-77
2024/02/18 12:57:59;;;;;;;5.17;3.70;;;;;;;19.84;36.51;99851.19;6940875;28;20241;-80
2024/02/18 13:01:21;;;;;;;9.53;5.03;;;;;;;20.05;36.50;99842.34;6966794;28;20238;-80
2024/02/18 13:04:51;;;;;;;6.00;3.70;;;;;;;20.00;36.15;99836.75;6960362;28;20647;-80
2024/02/18 13:08:13;;;;;;;4.20;3.50;;;;;;;20.19;35.89;99832.81;6974664;28;20229;-80
2024/02/18 13:11:36;;;;;;;4.03;3.67;;;;;;;19.73;36.76;99824.66;6975138;28;20236;-78
2024/02/18 13:14:57;;;;;;;4.80;3.90;;;;;;;19.57;36.83;99817.19;6967692;28;20287;-78
2024/02/18 13:18:19;;;;;;;10.77;4.97;;;;;;;19.56;37.19;99823.69;6966813;28;20712;-78
2024/02/18 13:21:40;;;;;;;8.77;6.03;;;;;;;19.51;37.81;99823.59;6967381;28;20298;-78
2024/02/18 13:25:02;;;;;;;4.57;4.10;;;;;;;19.32;37.67;99817.41;6965995;28;20291;-80
2024/02/18 13:28:25;;;;;;;6.77;5.50;;;;;;;18.85;38.57;99814.78;6966361;28;20279;-79
2024/02/18 13:31:46;;;;;;;4.93;4.43;;;;;;;18.64;38.82;99804.41;6967078;28;20209;-79
2024/02/18 13:35:08;;;;;;;6.47;5.30;;;;;;;19.09;38.89;99805.56;6967174;28;20282;-78
2024/02/18 13:38:30;;;;;;;5.33;4.83;;;;;;;19.28;38.31;99782.56;6946626;28;20219;-78
2024/02/18 13:41:51;;;;;;;5.30;4.80;;;;;;;19.42;38.07;99814.06;6945795;28;20690;-80
2024/02/18 13:45:14;;;;;;;6.00;5.40;;;;;;;19.44;38.14;99809.19;6950833;28;20620;-80
2024/02/18 13:48:36;;;;;;;10.53;5.20;;;;;;;19.66;38.01;99807.53;6951417;28;20316;-82
2024/02/18 13:51:58;;;;;;;8.27;4.87;;;;;;;19.43;38.18;99799.31;6978124;28;20210;-81
2024/02/18 13:55:19;;;;;;;4.70;4.20;;;;;;;18.78;39.24;99784.84;6973214;28;20313;-80
2024/02/18 13:58:41;;;;;;;5.27;4.77;;;;;;;19.44;38.50;99771.75;6972190;28;20383;-80
2024/02/18 14:02:05;;;;;;;6.10;5.43;;;;;;;19.23;38.75;99753.19;6947652;28;20202;-78
2024/02/18 14:05:26;;;;;;;8.87;6.47;;;;;;;19.31;38.51;99738.31;6954762;28;20218;-79
2024/02/18 14:08:48;;;;;;;5.60;5.00;;;;;;;19.57;38.68;99732.38;6975934;28;20260;-79
2024/02/18 14:12:12;;;;;;;5.63;5.13;;;;;;;19.76;37.56;99703.75;6972018;28;20620;-78
2024/02/18 14:15:33;;;;;;;4.87;4.43;;;;;;;19.99;37.82;99712.72;6971627;28;20379;-78
2024/02/18 14:18:57;;;;;;;5.30;4.80;;;;;;;19.82;37.85;99705.53;6971960;28;20786;-78
2024/02/18 14:22:18;;;;;;;5.23;4.73;;;;;;;19.75;38.40;99708.41;6972003;28;20695;-79
2024/02/18 14:25:40;;;;;;;6.23;4.90;;;;;;;19.47;38.76;99716.56;6977867;28;20333;-78
2024/02/18 14:29:03;;;;;;;5.20;4.53;;;;;;;19.48;38.71;99696.34;6972315;28;20797;-79
2024/02/18 14:32:25;;;;;;;5.53;5.03;;;;;;;19.24;39.36;99710.28;6972102;28;20351;-77
2024/02/18 14:35:47;;;;;;;6.17;4.97;;;;;;;19.33;39.37;99704.19;6971555;28;20226;-77
2024/02/18 14:39:09;;;;;;;6.20;5.60;;;;;;;19.18;39.77;99705.72;6966328;28;20301;-77
2024/02/18 14:42:31;;;;;;;5.80;5.30;;;;;;;19.16;40.22;99696.94;6948562;28;20719;-77
2024/02/18 14:45:52;;;;;;;7.43;5.50;;;;;;;19.32;40.24;99694.34;6951611;28;20321;-78
2024/02/18 14:49:14;;;;;;;5.93;5.40;;;;;;;19.35;40.34;99685.63;6970726;28;20640;-78
2024/02/18 14:52:37;;;;;;;9.93;6.20;;;;;;;18.87;41.66;99703.34;6971901;28;20697;-81
2024/02/18 14:55:59;;;;;;;9.30;6.30;;;;;;;18.58;42.20;99701.53;6971388;28;20321;-77
2024/02/18 14:59:20;;;;;;;7.20;6.50;;;;;;;18.77;41.81;99719.50;6969238;28;20704;-78
2024/02/18 15:02:42;;;;;;;14.67;6.90;;;;;;;18.91;42.16;99726.38;6951393;28;20293;-77
2024/02/18 15:06:04;;;;;;;10.77;7.50;;;;;;;18.53;43.28;99715.06;6969998;28;20331;-77
2024/02/18 15:09:30;;;;;;;11.90;8.50;;;;;;;18.22;43.97;99724.28;6970738;28;20272;-78
2024/02/18 15:12:52;;;;;;;12.30;8.27;;;;;;;18.18;44.66;99735.91;6968324;28;20206;-77
2024/02/18 15:16:14;;;;;;;11.60;8.50;;;;;;;18.08;44.87;99746.53;6970285;28;20319;-79
2024/02/18 15:19:35;;;;;;;10.83;8.17;;;;;;;17.91;45.05;99746.34;6971865;28;20226;-80
2024/02/18 15:22:57;;;;;;;9.30;6.80;;;;;;;17.48;45.69;99740.16;6971897;28;20221;-79
2024/02/18 15:26:20;;;;;;;11.27;6.73;;;;;;;17.10;46.73;99739.47;6959050;28;20277;-80
2024/02/18 15:29:42;;;;;;;7.37;6.30;;;;;;;17.19;46.56;99734.56;6962308;28;20356;-79
2024/02/18 15:33:04;;;;;;;8.17;5.80;;;;;;;17.52;46.13;99721.44;6964485;28;20323;-79